sensor_id;sensor_type;location;lat;lon;timestamp;P1;durP1;ratioP1;P2;durP2;ratioP2
30998;SDS011;20549;50.042;8.968;2023-09-08T00:00:07;4.80;;;4.33;;
30998;SDS011;20549;50.042;8.968;2023-09-08T00:02:34;4.65;;;4.25;;
30998;SDS011;20549;50.042;8.968;2023-09-08T00:05:00;5.33;;;4.83;;
30998;SDS011;20549;50.042;8.968;2023-09-08T00:07:27;4.45;;;4.05;;
30998;SDS011;20549;50.042;8.968;2023-09-08T00:09:53;4.40;;;3.98;;
30998;SDS011;20549;50.042;8.968;2023-09-08T00:12:20;4.22;;;3.92;;
30998;SDS011;20549;50.042;8.968;2023-09-08T00:14:46;5.08;;;4.12;;
30998;SDS011;20549;50.042;8.968;2023-09-08T00:17:13;5.97;;;4.50;;
30998;SDS011;20549;50.042;8.968;2023-09-08T00:19:40;5.20;;;4.70;;
30998;SDS011;20549;50.042;8.968;2023-09-08T00:22:06;5.25;;;4.85;;
30998;SDS011;20549;50.042;8.968;2023-09-08T00:24:33;4.58;;;4.17;;
30998;SDS011;20549;50.042;8.968;2023-09-08T00:26:59;5.92;;;4.47;;
30998;SDS011;20549;50.042;8.968;2023-09-08T00:29:26;5.15;;;4.65;;
30998;SDS011;20549;50.042;8.968;2023-09-08T00:31:53;6.70;;;4.40;;
30998;SDS011;20549;50.042;8.968;2023-09-08T00:34:19;5.22;;;4.72;;
30998;SDS011;20549;50.042;8.968;2023-09-08T00:36:46;5.60;;;5.00;;
30998;SDS011;20549;50.042;8.968;2023-09-08T00:39:12;5.12;;;4.33;;
30998;SDS011;20549;50.042;8.968;2023-09-08T00:41:39;5.28;;;4.08;;
30998;SDS011;20549;50.042;8.968;2023-09-08T00:44:06;4.90;;;4.50;;
30998;SDS011;20549;50.042;8.968;2023-09-08T00:46:32;4.95;;;4.55;;
30998;SDS011;20549;50.042;8.968;2023-09-08T00:48:59;4.10;;;3.80;;
30998;SDS011;20549;50.042;8.968;2023-09-08T00:51:25;4.97;;;4.58;;
30998;SDS011;20549;50.042;8.968;2023-09-08T00:53:52;4.67;;;4.28;;
30998;SDS011;20549;50.042;8.968;2023-09-08T00:56:19;4.35;;;3.95;;
30998;SDS011;20549;50.042;8.968;2023-09-08T00:58:45;5.28;;;4.20;;
30998;SDS011;20549;50.042;8.968;2023-09-08T01:01:12;4.50;;;4.10;;
30998;SDS011;20549;50.042;8.968;2023-09-08T01:03:38;4.53;;;4.15;;
30998;SDS011;20549;50.042;8.968;2023-09-08T01:06:05;5.20;;;3.92;;
30998;SDS011;20549;50.042;8.968;2023-09-08T01:08:32;4.75;;;4.35;;
30998;SDS011;20549;50.042;8.968;2023-09-08T01:10:58;4.37;;;3.98;;
30998;SDS011;20549;50.042;8.968;2023-09-08T01:13:25;5.72;;;3.70;;
30998;SDS011;20549;50.042;8.968;2023-09-08T01:15:51;4.55;;;3.80;;
30998;SDS011;20549;50.042;8.968;2023-09-08T01:18:18;5.03;;;3.90;;
30998;SDS011;20549;50.042;8.968;2023-09-08T01:20:51;4.72;;;4.28;;
30998;SDS011;20549;50.042;8.968;2023-09-08T01:23:38;4.65;;;4.20;;
30998;SDS011;20549;50.042;8.968;2023-09-08T01:26:04;5.10;;;4.65;;
30998;SDS011;20549;50.042;8.968;2023-09-08T01:28:28;5.33;;;4.75;;
30998;SDS011;20549;50.042;8.968;2023-09-08T01:30:55;5.08;;;4.50;;
30998;SDS011;20549;50.042;8.968;2023-09-08T01:33:21;4.72;;;4.33;;
30998;SDS011;20549;50.042;8.968;2023-09-08T01:35:48;4.37;;;4.00;;
30998;SDS011;20549;50.042;8.968;2023-09-08T01:38:14;4.58;;;4.28;;
30998;SDS011;20549;50.042;8.968;2023-09-08T01:40:41;4.70;;;4.30;;
30998;SDS011;20549;50.042;8.968;2023-09-08T01:43:08;4.95;;;4.15;;
30998;SDS011;20549;50.042;8.968;2023-09-08T01:45:34;4.87;;;4.22;;
30998;SDS011;20549;50.042;8.968;2023-09-08T01:48:01;5.55;;;4.30;;
30998;SDS011;20549;50.042;8.968;2023-09-08T01:50:27;5.00;;;4.47;;
30998;SDS011;20549;50.042;8.968;2023-09-08T01:52:54;4.83;;;4.30;;
30998;SDS011;20549;50.042;8.968;2023-09-08T01:55:21;4.92;;;4.42;;
30998;SDS011;20549;50.042;8.968;2023-09-08T01:57:47;4.80;;;4.40;;
30998;SDS011;20549;50.042;8.968;2023-09-08T02:00:14;4.72;;;4.33;;
30998;SDS011;20549;50.042;8.968;2023-09-08T02:02:40;4.65;;;4.25;;
30998;SDS011;20549;50.042;8.968;2023-09-08T02:05:07;4.20;;;3.90;;
30998;SDS011;20549;50.042;8.968;2023-09-08T02:07:34;4.95;;;4.55;;
30998;SDS011;20549;50.042;8.968;2023-09-08T02:10:00;5.00;;;4.60;;
30998;SDS011;20549;50.042;8.968;2023-09-08T02:12:27;5.22;;;4.72;;
30998;SDS011;20549;50.042;8.968;2023-09-08T02:14:53;6.33;;;4.60;;
30998;SDS011;20549;50.042;8.968;2023-09-08T02:17:20;5.42;;;4.83;;
30998;SDS011;20549;50.042;8.968;2023-09-08T02:19:46;4.62;;;4.22;;
30998;SDS011;20549;50.042;8.968;2023-09-08T02:22:13;5.17;;;4.67;;
30998;SDS011;20549;50.042;8.968;2023-09-08T02:24:40;6.30;;;5.70;;
30998;SDS011;20549;50.042;8.968;2023-09-08T02:27:06;6.25;;;4.55;;
30998;SDS011;20549;50.042;8.968;2023-09-08T02:29:33;5.72;;;5.00;;
30998;SDS011;20549;50.042;8.968;2023-09-08T02:31:59;5.12;;;4.72;;
30998;SDS011;20549;50.042;8.968;2023-09-08T02:34:26;4.83;;;4.42;;
30998;SDS011;20549;50.042;8.968;2023-09-08T02:36:53;5.60;;;5.10;;
30998;SDS011;20549;50.042;8.968;2023-09-08T02:39:19;5.12;;;4.62;;
30998;SDS011;20549;50.042;8.968;2023-09-08T02:41:46;5.50;;;5.00;;
30998;SDS011;20549;50.042;8.968;2023-09-08T02:44:12;6.00;;;4.65;;
30998;SDS011;20549;50.042;8.968;2023-09-08T02:46:39;5.28;;;4.87;;
30998;SDS011;20549;50.042;8.968;2023-09-08T02:49:08;4.90;;;4.50;;
30998;SDS011;20549;50.042;8.968;2023-09-08T02:51:35;5.83;;;4.72;;
30998;SDS011;20549;50.042;8.968;2023-09-08T02:54:02;5.72;;;5.12;;
30998;SDS011;20549;50.042;8.968;2023-09-08T02:56:28;5.72;;;5.15;;
30998;SDS011;20549;50.042;8.968;2023-09-08T02:58:55;5.47;;;4.87;;
30998;SDS011;20549;50.042;8.968;2023-09-08T03:01:21;5.10;;;4.70;;
30998;SDS011;20549;50.042;8.968;2023-09-08T03:03:48;5.03;;;4.62;;
30998;SDS011;20549;50.042;8.968;2023-09-08T03:06:15;5.78;;;4.80;;
30998;SDS011;20549;50.042;8.968;2023-09-08T03:08:41;7.83;;;5.12;;
30998;SDS011;20549;50.042;8.968;2023-09-08T03:11:08;4.75;;;4.35;;
30998;SDS011;20549;50.042;8.968;2023-09-08T03:13:35;5.55;;;4.70;;
30998;SDS011;20549;50.042;8.968;2023-09-08T03:16:04;5.45;;;4.95;;
30998;SDS011;20549;50.042;8.968;2023-09-08T03:18:31;5.62;;;4.83;;
30998;SDS011;20549;50.042;8.968;2023-09-08T03:20:57;4.55;;;4.22;;
30998;SDS011;20549;50.042;8.968;2023-09-08T03:23:24;5.78;;;4.78;;
30998;SDS011;20549;50.042;8.968;2023-09-08T03:25:50;4.60;;;4.20;;
30998;SDS011;20549;50.042;8.968;2023-09-08T03:28:17;4.83;;;4.33;;
30998;SDS011;20549;50.042;8.968;2023-09-08T03:30:43;5.00;;;4.60;;
30998;SDS011;20549;50.042;8.968;2023-09-08T03:33:10;5.28;;;4.87;;
30998;SDS011;20549;50.042;8.968;2023-09-08T03:35:37;5.10;;;4.70;;
30998;SDS011;20549;50.042;8.968;2023-09-08T03:38:03;5.25;;;4.78;;
30998;SDS011;20549;50.042;8.968;2023-09-08T03:40:30;4.92;;;4.53;;
30998;SDS011;20549;50.042;8.968;2023-09-08T03:42:56;5.95;;;4.92;;
30998;SDS011;20549;50.042;8.968;2023-09-08T03:45:23;6.10;;;5.55;;
30998;SDS011;20549;50.042;8.968;2023-09-08T03:47:50;4.90;;;4.50;;
30998;SDS011;20549;50.042;8.968;2023-09-08T03:50:16;5.85;;;4.85;;
30998;SDS011;20549;50.042;8.968;2023-09-08T03:52:43;6.90;;;5.28;;
30998;SDS011;20549;50.042;8.968;2023-09-08T03:55:09;6.17;;;5.43;;
30998;SDS011;20549;50.042;8.968;2023-09-08T03:57:36;5.17;;;4.78;;
30998;SDS011;20549;50.042;8.968;2023-09-08T04:00:03;5.25;;;4.80;;
30998;SDS011;20549;50.042;8.968;2023-09-08T04:02:29;6.10;;;5.58;;
30998;SDS011;20549;50.042;8.968;2023-09-08T04:04:56;5.30;;;4.80;;
30998;SDS011;20549;50.042;8.968;2023-09-08T04:07:22;5.08;;;4.65;;
30998;SDS011;20549;50.042;8.968;2023-09-08T04:09:49;5.03;;;4.62;;
30998;SDS011;20549;50.042;8.968;2023-09-08T04:12:16;4.92;;;4.53;;
30998;SDS011;20549;50.042;8.968;2023-09-08T04:14:42;5.00;;;4.50;;
30998;SDS011;20549;50.042;8.968;2023-09-08T04:17:09;5.17;;;4.62;;
30998;SDS011;20549;50.042;8.968;2023-09-08T04:19:35;5.20;;;4.70;;
30998;SDS011;20549;50.042;8.968;2023-09-08T04:22:02;5.97;;;4.53;;
30998;SDS011;20549;50.042;8.968;2023-09-08T04:24:28;5.10;;;4.70;;
30998;SDS011;20549;50.042;8.968;2023-09-08T04:26:55;4.70;;;4.28;;
30998;SDS011;20549;50.042;8.968;2023-09-08T04:29:22;5.08;;;4.65;;
30998;SDS011;20549;50.042;8.968;2023-09-08T04:31:48;4.85;;;4.45;;
30998;SDS011;20549;50.042;8.968;2023-09-08T04:34:15;5.35;;;4.20;;
30998;SDS011;20549;50.042;8.968;2023-09-08T04:36:41;4.80;;;4.40;;
30998;SDS011;20549;50.042;8.968;2023-09-08T04:39:08;4.80;;;4.40;;
30998;SDS011;20549;50.042;8.968;2023-09-08T04:41:35;4.60;;;4.08;;
30998;SDS011;20549;50.042;8.968;2023-09-08T04:44:01;5.00;;;4.60;;
30998;SDS011;20549;50.042;8.968;2023-09-08T04:46:28;4.63;;;4.23;;
30998;SDS011;20549;50.042;8.968;2023-09-08T04:48:54;5.17;;;4.47;;
30998;SDS011;20549;50.042;8.968;2023-09-08T04:51:21;5.75;;;4.90;;
30998;SDS011;20549;50.042;8.968;2023-09-08T04:53:48;4.93;;;4.53;;
30998;SDS011;20549;50.042;8.968;2023-09-08T04:56:14;4.80;;;4.40;;
30998;SDS011;20549;50.042;8.968;2023-09-08T04:58:41;5.43;;;4.70;;
30998;SDS011;20549;50.042;8.968;2023-09-08T05:01:07;5.40;;;4.90;;
30998;SDS011;20549;50.042;8.968;2023-09-08T05:03:34;5.30;;;4.60;;
30998;SDS011;20549;50.042;8.968;2023-09-08T05:06:00;5.70;;;5.20;;
30998;SDS011;20549;50.042;8.968;2023-09-08T05:08:27;5.30;;;4.80;;
30998;SDS011;20549;50.042;8.968;2023-09-08T05:10:54;6.00;;;5.45;;
30998;SDS011;20549;50.042;8.968;2023-09-08T05:13:20;4.83;;;4.42;;
30998;SDS011;20549;50.042;8.968;2023-09-08T05:15:47;6.37;;;5.28;;
30998;SDS011;20549;50.042;8.968;2023-09-08T05:18:13;6.97;;;5.87;;
30998;SDS011;20549;50.042;8.968;2023-09-08T05:20:40;4.85;;;4.35;;
30998;SDS011;20549;50.042;8.968;2023-09-08T05:23:07;6.25;;;4.97;;
30998;SDS011;20549;50.042;8.968;2023-09-08T05:25:33;5.55;;;5.05;;
30998;SDS011;20549;50.042;8.968;2023-09-08T05:28:00;4.80;;;4.40;;
30998;SDS011;20549;50.042;8.968;2023-09-08T05:30:26;6.12;;;5.50;;
30998;SDS011;20549;50.042;8.968;2023-09-08T05:32:53;4.92;;;4.42;;
30998;SDS011;20549;50.042;8.968;2023-09-08T05:35:20;4.53;;;4.12;;
30998;SDS011;20549;50.042;8.968;2023-09-08T05:37:46;4.47;;;4.03;;
30998;SDS011;20549;50.042;8.968;2023-09-08T05:40:13;4.20;;;3.90;;
30998;SDS011;20549;50.042;8.968;2023-09-08T05:42:39;4.72;;;4.33;;
30998;SDS011;20549;50.042;8.968;2023-09-08T05:45:06;4.05;;;3.77;;
30998;SDS011;20549;50.042;8.968;2023-09-08T05:47:32;4.78;;;4.37;;
30998;SDS011;20549;50.042;8.968;2023-09-08T05:49:59;4.25;;;3.85;;
30998;SDS011;20549;50.042;8.968;2023-09-08T05:52:26;5.47;;;4.03;;
30998;SDS011;20549;50.042;8.968;2023-09-08T05:54:52;3.67;;;3.35;;
30998;SDS011;20549;50.042;8.968;2023-09-08T05:57:19;4.42;;;3.90;;
30998;SDS011;20549;50.042;8.968;2023-09-08T05:59:45;4.47;;;4.05;;
30998;SDS011;20549;50.042;8.968;2023-09-08T06:02:12;4.35;;;3.95;;
30998;SDS011;20549;50.042;8.968;2023-09-08T06:04:39;3.98;;;3.67;;
30998;SDS011;20549;50.042;8.968;2023-09-08T06:07:05;4.42;;;4.03;;
30998;SDS011;20549;50.042;8.968;2023-09-08T06:09:32;4.50;;;3.60;;
30998;SDS011;20549;50.042;8.968;2023-09-08T06:11:58;4.45;;;3.75;;
30998;SDS011;20549;50.042;8.968;2023-09-08T06:14:25;4.03;;;3.72;;
30998;SDS011;20549;50.042;8.968;2023-09-08T06:16:52;4.65;;;4.25;;
30998;SDS011;20549;50.042;8.968;2023-09-08T06:19:18;4.28;;;3.98;;
30998;SDS011;20549;50.042;8.968;2023-09-08T06:21:45;5.12;;;3.95;;
30998;SDS011;20549;50.042;8.968;2023-09-08T06:24:11;4.10;;;3.70;;
30998;SDS011;20549;50.042;8.968;2023-09-08T06:26:38;6.15;;;3.67;;
30998;SDS011;20549;50.042;8.968;2023-09-08T06:29:05;4.05;;;3.65;;
30998;SDS011;20549;50.042;8.968;2023-09-08T06:31:31;5.08;;;4.03;;
30998;SDS011;20549;50.042;8.968;2023-09-08T06:33:58;3.80;;;3.45;;
30998;SDS011;20549;50.042;8.968;2023-09-08T06:36:24;3.72;;;3.42;;
30998;SDS011;20549;50.042;8.968;2023-09-08T06:38:51;5.58;;;4.00;;
30998;SDS011;20549;50.042;8.968;2023-09-08T06:41:17;4.00;;;3.67;;
30998;SDS011;20549;50.042;8.968;2023-09-08T06:43:44;7.72;;;3.55;;
30998;SDS011;20549;50.042;8.968;2023-09-08T06:46:11;3.77;;;3.50;;
30998;SDS011;20549;50.042;8.968;2023-09-08T06:48:37;4.37;;;3.87;;
30998;SDS011;20549;50.042;8.968;2023-09-08T06:51:04;7.10;;;3.90;;
30998;SDS011;20549;50.042;8.968;2023-09-08T06:53:30;3.55;;;3.25;;
30998;SDS011;20549;50.042;8.968;2023-09-08T06:55:57;5.28;;;3.45;;
30998;SDS011;20549;50.042;8.968;2023-09-08T06:58:24;7.95;;;3.77;;
30998;SDS011;20549;50.042;8.968;2023-09-08T07:00:50;3.85;;;3.55;;
30998;SDS011;20549;50.042;8.968;2023-09-08T07:03:17;4.97;;;3.42;;
30998;SDS011;20549;50.042;8.968;2023-09-08T07:05:43;3.87;;;3.55;;
30998;SDS011;20549;50.042;8.968;2023-09-08T07:08:10;3.50;;;3.20;;
30998;SDS011;20549;50.042;8.968;2023-09-08T07:10:37;3.35;;;3.05;;
30998;SDS011;20549;50.042;8.968;2023-09-08T07:13:03;3.65;;;3.30;;
30998;SDS011;20549;50.042;8.968;2023-09-08T07:15:30;4.30;;;3.50;;
30998;SDS011;20549;50.042;8.968;2023-09-08T07:17:56;3.65;;;3.35;;
30998;SDS011;20549;50.042;8.968;2023-09-08T07:20:23;4.05;;;3.25;;
30998;SDS011;20549;50.042;8.968;2023-09-08T07:22:49;4.60;;;3.08;;
30998;SDS011;20549;50.042;8.968;2023-09-08T07:25:16;4.17;;;3.00;;
30998;SDS011;20549;50.042;8.968;2023-09-08T07:27:43;5.22;;;3.20;;
30998;SDS011;20549;50.042;8.968;2023-09-08T07:30:09;4.60;;;3.10;;
30998;SDS011;20549;50.042;8.968;2023-09-08T07:32:36;6.55;;;3.08;;
30998;SDS011;20549;50.042;8.968;2023-09-08T07:35:02;3.17;;;2.90;;
30998;SDS011;20549;50.042;8.968;2023-09-08T07:37:29;5.78;;;3.02;;
30998;SDS011;20549;50.042;8.968;2023-09-08T07:39:56;3.20;;;2.90;;
30998;SDS011;20549;50.042;8.968;2023-09-08T07:42:22;3.58;;;2.80;;
30998;SDS011;20549;50.042;8.968;2023-09-08T07:44:49;5.15;;;2.60;;
30998;SDS011;20549;50.042;8.968;2023-09-08T07:47:15;4.08;;;2.62;;
30998;SDS011;20549;50.042;8.968;2023-09-08T07:49:44;3.80;;;2.90;;
30998;SDS011;20549;50.042;8.968;2023-09-08T07:52:09;3.50;;;2.70;;
30998;SDS011;20549;50.042;8.968;2023-09-08T07:54:35;3.05;;;2.80;;
30998;SDS011;20549;50.042;8.968;2023-09-08T07:57:02;6.30;;;2.67;;
30998;SDS011;20549;50.042;8.968;2023-09-08T07:59:28;2.98;;;2.70;;
30998;SDS011;20549;50.042;8.968;2023-09-08T08:01:55;3.47;;;2.50;;
30998;SDS011;20549;50.042;8.968;2023-09-08T08:04:21;3.45;;;3.12;;
30998;SDS011;20549;50.042;8.968;2023-09-08T08:06:48;2.98;;;2.77;;
30998;SDS011;20549;50.042;8.968;2023-09-08T08:09:15;3.10;;;2.90;;
30998;SDS011;20549;50.042;8.968;2023-09-08T08:11:41;3.37;;;2.55;;
30998;SDS011;20549;50.042;8.968;2023-09-08T08:14:08;2.58;;;2.33;;
30998;SDS011;20549;50.042;8.968;2023-09-08T08:16:34;5.72;;;2.50;;
30998;SDS011;20549;50.042;8.968;2023-09-08T08:19:01;4.28;;;2.98;;
30998;SDS011;20549;50.042;8.968;2023-09-08T08:21:28;2.50;;;2.30;;
30998;SDS011;20549;50.042;8.968;2023-09-08T08:23:54;3.80;;;2.67;;
30998;SDS011;20549;50.042;8.968;2023-09-08T08:26:21;2.15;;;2.05;;
30998;SDS011;20549;50.042;8.968;2023-09-08T08:28:47;5.50;;;2.60;;
30998;SDS011;20549;50.042;8.968;2023-09-08T08:31:14;2.60;;;2.40;;
30998;SDS011;20549;50.042;8.968;2023-09-08T08:33:41;2.52;;;2.25;;
30998;SDS011;20549;50.042;8.968;2023-09-08T08:36:07;2.62;;;2.15;;
30998;SDS011;20549;50.042;8.968;2023-09-08T08:38:34;4.25;;;2.25;;
30998;SDS011;20549;50.042;8.968;2023-09-08T08:41:03;2.62;;;2.10;;
30998;SDS011;20549;50.042;8.968;2023-09-08T08:43:30;2.35;;;2.10;;
30998;SDS011;20549;50.042;8.968;2023-09-08T08:45:57;3.90;;;2.47;;
30998;SDS011;20549;50.042;8.968;2023-09-08T08:48:23;2.50;;;2.30;;
30998;SDS011;20549;50.042;8.968;2023-09-08T08:50:50;2.35;;;2.15;;
30998;SDS011;20549;50.042;8.968;2023-09-08T08:53:17;2.30;;;2.20;;
30998;SDS011;20549;50.042;8.968;2023-09-08T08:55:43;4.12;;;2.50;;
30998;SDS011;20549;50.042;8.968;2023-09-08T08:58:09;2.40;;;2.20;;
30998;SDS011;20549;50.042;8.968;2023-09-08T09:00:36;2.22;;;2.12;;
30998;SDS011;20549;50.042;8.968;2023-09-08T09:03:04;2.50;;;2.30;;
30998;SDS011;20549;50.042;8.968;2023-09-08T09:05:29;3.27;;;2.33;;
30998;SDS011;20549;50.042;8.968;2023-09-08T09:07:57;2.67;;;2.47;;
30998;SDS011;20549;50.042;8.968;2023-09-08T09:10:22;2.87;;;2.40;;
30998;SDS011;20549;50.042;8.968;2023-09-08T09:12:49;3.42;;;2.10;;
30998;SDS011;20549;50.042;8.968;2023-09-08T09:15:15;2.75;;;2.35;;
30998;SDS011;20549;50.042;8.968;2023-09-08T09:17:42;2.45;;;2.25;;
30998;SDS011;20549;50.042;8.968;2023-09-08T09:20:15;2.30;;;2.10;;
30998;SDS011;20549;50.042;8.968;2023-09-08T09:22:38;2.77;;;2.37;;
30998;SDS011;20549;50.042;8.968;2023-09-08T09:25:05;2.72;;;2.40;;
30998;SDS011;20549;50.042;8.968;2023-09-08T09:27:31;2.75;;;2.52;;
30998;SDS011;20549;50.042;8.968;2023-09-08T09:29:58;2.58;;;2.37;;
30998;SDS011;20549;50.042;8.968;2023-09-08T09:32:24;2.20;;;2.10;;
30998;SDS011;20549;50.042;8.968;2023-09-08T09:34:52;2.47;;;2.27;;
30998;SDS011;20549;50.042;8.968;2023-09-08T09:37:18;2.60;;;2.40;;
30998;SDS011;20549;50.042;8.968;2023-09-08T09:39:48;2.67;;;2.47;;
30998;SDS011;20549;50.042;8.968;2023-09-08T09:42:17;2.58;;;2.37;;
30998;SDS011;20549;50.042;8.968;2023-09-08T09:44:43;2.58;;;2.37;;
30998;SDS011;20549;50.042;8.968;2023-09-08T09:47:10;2.70;;;2.50;;
30998;SDS011;20549;50.042;8.968;2023-09-08T09:49:46;3.67;;;2.30;;
30998;SDS011;20549;50.042;8.968;2023-09-08T09:52:12;2.15;;;2.05;;
30998;SDS011;20549;50.042;8.968;2023-09-08T09:54:41;2.58;;;2.30;;
30998;SDS011;20549;50.042;8.968;2023-09-08T09:57:08;2.55;;;2.35;;
30998;SDS011;20549;50.042;8.968;2023-09-08T09:59:34;3.00;;;2.50;;
30998;SDS011;20549;50.042;8.968;2023-09-08T10:02:00;3.80;;;2.47;;
30998;SDS011;20549;50.042;8.968;2023-09-08T10:04:27;3.02;;;2.25;;
30998;SDS011;20549;50.042;8.968;2023-09-08T10:06:54;3.30;;;2.60;;
30998;SDS011;20549;50.042;8.968;2023-09-08T10:09:20;2.85;;;2.65;;
30998;SDS011;20549;50.042;8.968;2023-09-08T10:11:48;2.75;;;2.55;;
30998;SDS011;20549;50.042;8.968;2023-09-08T10:14:14;2.77;;;2.58;;
30998;SDS011;20549;50.042;8.968;2023-09-08T10:16:40;3.02;;;2.77;;
30998;SDS011;20549;50.042;8.968;2023-09-08T10:19:10;2.72;;;2.52;;
30998;SDS011;20549;50.042;8.968;2023-09-08T10:21:33;2.85;;;2.65;;
30998;SDS011;20549;50.042;8.968;2023-09-08T10:24:03;3.33;;;2.40;;
30998;SDS011;20549;50.042;8.968;2023-09-08T10:26:27;3.45;;;2.70;;
30998;SDS011;20549;50.042;8.968;2023-09-08T10:28:54;2.75;;;2.55;;
30998;SDS011;20549;50.042;8.968;2023-09-08T10:31:25;2.83;;;2.62;;
30998;SDS011;20549;50.042;8.968;2023-09-08T10:33:49;4.12;;;3.10;;
30998;SDS011;20549;50.042;8.968;2023-09-08T10:36:15;3.27;;;2.85;;
30998;SDS011;20549;50.042;8.968;2023-09-08T10:38:42;5.05;;;2.98;;
30998;SDS011;20549;50.042;8.968;2023-09-08T10:43:44;6.33;;;3.20;;
30998;SDS011;20549;50.042;8.968;2023-09-08T10:46:12;2.85;;;2.52;;
30998;SDS011;20549;50.042;8.968;2023-09-08T10:48:44;3.20;;;2.90;;
30998;SDS011;20549;50.042;8.968;2023-09-08T10:51:07;3.08;;;2.62;;
30998;SDS011;20549;50.042;8.968;2023-09-08T10:53:33;3.05;;;2.72;;
30998;SDS011;20549;50.042;8.968;2023-09-08T10:56:00;7.72;;;3.22;;
30998;SDS011;20549;50.042;8.968;2023-09-08T10:58:32;3.20;;;2.90;;
30998;SDS011;20549;50.042;8.968;2023-09-08T11:00:58;3.02;;;2.17;;
30998;SDS011;20549;50.042;8.968;2023-09-08T11:03:26;3.27;;;2.47;;
30998;SDS011;20549;50.042;8.968;2023-09-08T11:06:04;2.98;;;2.75;;
30998;SDS011;20549;50.042;8.968;2023-09-08T11:08:32;2.60;;;2.37;;
30998;SDS011;20549;50.042;8.968;2023-09-08T11:10:57;3.92;;;2.67;;
30998;SDS011;20549;50.042;8.968;2023-09-08T11:13:24;3.05;;;2.60;;
30998;SDS011;20549;50.042;8.968;2023-09-08T11:15:53;3.25;;;2.95;;
30998;SDS011;20549;50.042;8.968;2023-09-08T11:18:26;4.92;;;3.00;;
30998;SDS011;20549;50.042;8.968;2023-09-08T11:20:55;3.25;;;2.95;;
30998;SDS011;20549;50.042;8.968;2023-09-08T11:23:21;3.33;;;2.77;;
30998;SDS011;20549;50.042;8.968;2023-09-08T11:25:49;3.50;;;2.72;;
30998;SDS011;20549;50.042;8.968;2023-09-08T11:28:17;3.62;;;2.65;;
30998;SDS011;20549;50.042;8.968;2023-09-08T11:30:46;4.45;;;2.98;;
30998;SDS011;20549;50.042;8.968;2023-09-08T11:33:16;3.20;;;2.70;;
30998;SDS011;20549;50.042;8.968;2023-09-08T11:35:45;2.90;;;2.70;;
30998;SDS011;20549;50.042;8.968;2023-09-08T11:38:12;3.00;;;2.80;;
30998;SDS011;20549;50.042;8.968;2023-09-08T11:40:38;3.22;;;2.77;;
30998;SDS011;20549;50.042;8.968;2023-09-08T11:43:05;3.25;;;2.95;;
30998;SDS011;20549;50.042;8.968;2023-09-08T11:45:33;3.00;;;2.70;;
30998;SDS011;20549;50.042;8.968;2023-09-08T11:47:58;3.08;;;2.87;;
30998;SDS011;20549;50.042;8.968;2023-09-08T11:50:24;3.45;;;3.20;;
30998;SDS011;20549;50.042;8.968;2023-09-08T11:52:51;3.52;;;3.17;;
30998;SDS011;20549;50.042;8.968;2023-09-08T11:55:18;2.90;;;2.70;;
30998;SDS011;20549;50.042;8.968;2023-09-08T11:57:48;3.02;;;2.83;;
30998;SDS011;20549;50.042;8.968;2023-09-08T12:00:20;3.40;;;3.10;;
30998;SDS011;20549;50.042;8.968;2023-09-08T12:02:46;2.87;;;2.62;;
30998;SDS011;20549;50.042;8.968;2023-09-08T12:05:19;2.83;;;2.62;;
30998;SDS011;20549;50.042;8.968;2023-09-08T12:07:40;3.20;;;2.90;;
30998;SDS011;20549;50.042;8.968;2023-09-08T12:10:07;2.83;;;2.60;;
30998;SDS011;20549;50.042;8.968;2023-09-08T12:12:42;3.15;;;2.87;;
30998;SDS011;20549;50.042;8.968;2023-09-08T12:15:08;2.87;;;2.67;;
30998;SDS011;20549;50.042;8.968;2023-09-08T12:17:46;3.80;;;2.90;;
30998;SDS011;20549;50.042;8.968;2023-09-08T12:20:12;3.15;;;2.87;;
30998;SDS011;20549;50.042;8.968;2023-09-08T12:22:28;2.98;;;2.77;;
30998;SDS011;20549;50.042;8.968;2023-09-08T12:27:24;2.98;;;2.77;;
30998;SDS011;20549;50.042;8.968;2023-09-08T12:32:23;2.95;;;2.67;;
30998;SDS011;20549;50.042;8.968;2023-09-08T12:34:50;4.33;;;2.83;;
30998;SDS011;20549;50.042;8.968;2023-09-08T12:37:19;3.62;;;2.98;;
30998;SDS011;20549;50.042;8.968;2023-09-08T12:39:42;2.77;;;2.60;;
30998;SDS011;20549;50.042;8.968;2023-09-08T12:42:09;4.25;;;3.10;;
30998;SDS011;20549;50.042;8.968;2023-09-08T12:44:35;3.15;;;2.83;;
30998;SDS011;20549;50.042;8.968;2023-09-08T12:47:02;3.70;;;2.90;;
30998;SDS011;20549;50.042;8.968;2023-09-08T12:49:29;3.20;;;2.90;;
30998;SDS011;20549;50.042;8.968;2023-09-08T12:51:55;3.00;;;2.80;;
30998;SDS011;20549;50.042;8.968;2023-09-08T12:54:22;2.85;;;2.55;;
30998;SDS011;20549;50.042;8.968;2023-09-08T12:56:48;3.00;;;2.70;;
30998;SDS011;20549;50.042;8.968;2023-09-08T12:59:15;4.95;;;3.05;;
30998;SDS011;20549;50.042;8.968;2023-09-08T13:01:41;2.83;;;2.60;;
30998;SDS011;20549;50.042;8.968;2023-09-08T13:04:08;3.20;;;2.80;;
30998;SDS011;20549;50.042;8.968;2023-09-08T13:06:35;3.10;;;2.90;;
30998;SDS011;20549;50.042;8.968;2023-09-08T13:09:01;2.95;;;2.72;;
30998;SDS011;20549;50.042;8.968;2023-09-08T13:11:28;5.30;;;2.92;;
30998;SDS011;20549;50.042;8.968;2023-09-08T13:13:54;5.45;;;3.02;;
30998;SDS011;20549;50.042;8.968;2023-09-08T13:16:21;3.27;;;3.00;;
30998;SDS011;20549;50.042;8.968;2023-09-08T13:18:48;4.17;;;2.92;;
30998;SDS011;20549;50.042;8.968;2023-09-08T13:21:14;2.85;;;2.47;;
30998;SDS011;20549;50.042;8.968;2023-09-08T13:23:41;3.00;;;2.70;;
30998;SDS011;20549;50.042;8.968;2023-09-08T13:26:07;2.95;;;2.75;;
30998;SDS011;20549;50.042;8.968;2023-09-08T13:28:34;3.50;;;2.75;;
30998;SDS011;20549;50.042;8.968;2023-09-08T13:31:01;2.80;;;2.60;;
30998;SDS011;20549;50.042;8.968;2023-09-08T13:33:27;3.45;;;3.12;;
30998;SDS011;20549;50.042;8.968;2023-09-08T13:35:54;4.35;;;2.65;;
30998;SDS011;20549;50.042;8.968;2023-09-08T13:38:20;3.30;;;3.00;;
30998;SDS011;20549;50.042;8.968;2023-09-08T13:40:47;2.90;;;2.70;;
30998;SDS011;20549;50.042;8.968;2023-09-08T13:43:14;3.37;;;3.08;;
30998;SDS011;20549;50.042;8.968;2023-09-08T13:45:40;3.65;;;2.80;;
30998;SDS011;20549;50.042;8.968;2023-09-08T13:48:07;3.98;;;2.90;;
30998;SDS011;20549;50.042;8.968;2023-09-08T13:50:33;3.65;;;2.72;;
30998;SDS011;20549;50.042;8.968;2023-09-08T13:53:00;2.85;;;2.65;;
30998;SDS011;20549;50.042;8.968;2023-09-08T13:55:26;4.05;;;2.87;;
30998;SDS011;20549;50.042;8.968;2023-09-08T13:57:53;4.25;;;3.05;;
30998;SDS011;20549;50.042;8.968;2023-09-08T14:00:20;3.17;;;2.65;;
30998;SDS011;20549;50.042;8.968;2023-09-08T14:02:46;3.17;;;2.87;;
30998;SDS011;20549;50.042;8.968;2023-09-08T14:05:13;2.83;;;2.62;;
30998;SDS011;20549;50.042;8.968;2023-09-08T14:07:39;2.95;;;2.60;;
30998;SDS011;20549;50.042;8.968;2023-09-08T14:10:06;3.20;;;3.00;;
30998;SDS011;20549;50.042;8.968;2023-09-08T14:12:33;2.67;;;2.27;;
30998;SDS011;20549;50.042;8.968;2023-09-08T14:14:59;3.02;;;2.83;;
30998;SDS011;20549;50.042;8.968;2023-09-08T14:17:26;2.90;;;2.70;;
30998;SDS011;20549;50.042;8.968;2023-09-08T14:19:52;3.10;;;2.90;;
30998;SDS011;20549;50.042;8.968;2023-09-08T14:22:19;3.17;;;2.87;;
30998;SDS011;20549;50.042;8.968;2023-09-08T14:24:46;3.67;;;3.12;;
30998;SDS011;20549;50.042;8.968;2023-09-08T14:27:12;3.22;;;2.92;;
30998;SDS011;20549;50.042;8.968;2023-09-08T14:29:39;3.72;;;3.30;;
30998;SDS011;20549;50.042;8.968;2023-09-08T14:32:05;3.12;;;2.90;;
30998;SDS011;20549;50.042;8.968;2023-09-08T14:34:32;2.92;;;2.72;;
30998;SDS011;20549;50.042;8.968;2023-09-08T14:36:59;3.00;;;2.80;;
30998;SDS011;20549;50.042;8.968;2023-09-08T14:39:25;2.77;;;2.58;;
30998;SDS011;20549;50.042;8.968;2023-09-08T14:41:52;2.67;;;2.47;;
30998;SDS011;20549;50.042;8.968;2023-09-08T14:44:18;4.08;;;2.72;;
30998;SDS011;20549;50.042;8.968;2023-09-08T14:46:45;3.40;;;2.77;;
30998;SDS011;20549;50.042;8.968;2023-09-08T14:49:12;2.95;;;2.70;;
30998;SDS011;20549;50.042;8.968;2023-09-08T14:51:38;5.55;;;2.80;;